createdAt,value
2018-05-11T00:01:00.540Z,1009.85
2018-05-11T00:02:10.507Z,1009.85
2018-05-11T00:03:20.480Z,1009.94
2018-05-11T00:04:30.475Z,1009.99
2018-05-11T00:05:40.451Z,1009.96
2018-05-11T00:06:50.443Z,1010.02
2018-05-11T00:08:00.420Z,1010.01
2018-05-11T00:09:09.880Z,1010
2018-05-11T00:10:19.885Z,1010.06
2018-05-11T00:11:29.852Z,1009.98
2018-05-11T00:12:39.824Z,1010
2018-05-11T00:13:49.562Z,1010.03
2018-05-11T00:14:59.023Z,1010.03
2018-05-11T00:16:08.987Z,1010.1
2018-05-11T00:17:18.702Z,1010.07
2018-05-11T00:18:28.683Z,1010.11
2018-05-11T00:19:38.403Z,1010.13
2018-05-11T00:20:48.388Z,1010.13
2018-05-11T00:21:58.353Z,1010.21
2018-05-11T00:23:08.064Z,1010.25
2018-05-11T00:24:17.786Z,1010.21
2018-05-11T00:25:27.765Z,1010.17
2018-05-11T00:26:37.748Z,1010.19
2018-05-11T00:27:47.718Z,1010.21
2018-05-11T00:28:57.688Z,1010.21
2018-05-11T00:30:07.654Z,1010.18
2018-05-11T00:31:17.366Z,1010.22
2018-05-11T00:32:27.090Z,1010.3
2018-05-11T00:33:37.057Z,1010.29
2018-05-11T00:34:47.041Z,1010.17
2018-05-11T00:35:57.019Z,1010.26
2018-05-11T00:37:06.998Z,1010.21
2018-05-11T00:38:16.968Z,1010.27
2018-05-11T00:39:26.932Z,1010.3
2018-05-11T00:40:36.896Z,1010.24
2018-05-11T00:41:46.866Z,1010.32
2018-05-11T00:42:56.839Z,1010.32
2018-05-11T00:44:06.806Z,1010.35
2018-05-11T00:45:16.773Z,1010.43
2018-05-11T00:46:26.746Z,1010.4
2018-05-11T00:47:36.724Z,1010.4
2018-05-11T00:48:46.698Z,1010.45
2018-05-11T00:49:56.408Z,1010.53
2018-05-11T00:51:06.148Z,1010.53
2018-05-11T00:52:16.494Z,1010.58
2018-05-11T00:53:26.465Z,1010.49
2018-05-11T00:54:36.453Z,1010.64
2018-05-11T00:55:46.428Z,1010.55
2018-05-11T00:56:56.499Z,1010.62
2018-05-11T00:58:06.210Z,1010.67
2018-05-11T00:59:15.926Z,1010.64
2018-05-11T01:00:25.658Z,1010.68
2018-05-11T01:01:35.109Z,1010.8
2018-05-11T01:02:45.088Z,1010.9
2018-05-11T01:03:55.145Z,1010.93
2018-05-11T01:05:05.129Z,1010.95
2018-05-11T01:06:14.840Z,1010.9
2018-05-11T01:07:24.822Z,1010.98
2018-05-11T01:08:34.271Z,1011.01
2018-05-11T01:09:43.746Z,1010.96
2018-05-11T01:10:53.465Z,1011.04
2018-05-11T01:12:03.515Z,1011.05
2018-05-11T01:13:13.488Z,1011.05
2018-05-11T01:14:23.455Z,1011.05
2018-05-11T01:15:33.215Z,1011
2018-05-11T01:16:43.180Z,1011.05
2018-05-11T01:17:52.846Z,1011.06
2018-05-11T01:19:02.810Z,1011.15
2018-05-11T01:20:12.521Z,1011.21
2018-05-11T01:21:22.550Z,1011.12
2018-05-11T01:22:32.520Z,1011.18
2018-05-11T01:23:42.000Z,1011.21
2018-05-11T01:24:51.979Z,1011.18
2018-05-11T01:26:01.695Z,1011.2
2018-05-11T01:27:11.159Z,1011.2
2018-05-11T01:28:21.157Z,1011.2
2018-05-11T01:29:31.126Z,1011.24
2018-05-11T01:30:41.106Z,1011.26
2018-05-11T01:31:51.097Z,1011.25
2018-05-11T01:33:01.061Z,1011.33
2018-05-11T01:34:11.033Z,1011.4
2018-05-11T01:35:21.011Z,1011.33
2018-05-11T01:36:31.013Z,1011.35
2018-05-11T01:37:40.714Z,1011.37
2018-05-11T01:38:50.694Z,1011.34
2018-05-11T01:40:00.666Z,1011.35
2018-05-11T01:41:10.406Z,1011.36
2018-05-11T01:42:20.430Z,1011.32
2018-05-11T01:43:30.412Z,1011.34
2018-05-11T01:44:40.411Z,1011.35
2018-05-11T01:45:50.371Z,1011.35
2018-05-11T01:47:00.352Z,1011.42
2018-05-11T01:48:10.352Z,1011.34
2018-05-11T01:49:20.326Z,1011.36
2018-05-11T01:50:30.029Z,1011.37
2018-05-11T01:51:40.084Z,1011.41
2018-05-11T01:52:49.793Z,1011.42
2018-05-11T01:53:59.883Z,1011.36
2018-05-11T01:55:09.853Z,1011.42
2018-05-11T01:56:19.577Z,1011.42
2018-05-11T01:57:29.547Z,1011.43
2018-05-11T01:58:39.255Z,1011.45
2018-05-11T01:59:49.229Z,1011.46
2018-05-11T02:00:59.196Z,1011.46
2018-05-11T02:02:08.926Z,1011.49
2018-05-11T02:03:18.889Z,1011.45
2018-05-11T02:04:28.355Z,1011.48
2018-05-11T02:05:38.334Z,1011.54
2018-05-11T02:06:48.306Z,1011.49
2018-05-11T02:07:58.271Z,1011.56
2018-05-11T02:09:08.253Z,1011.59
2018-05-11T02:10:17.961Z,1011.61
2018-05-11T02:11:27.687Z,1011.55
2018-05-11T02:12:37.712Z,1011.66
2018-05-11T02:13:47.431Z,1011.57
2018-05-11T02:14:57.133Z,1011.6
2018-05-11T02:16:06.591Z,1011.6
2018-05-11T02:17:16.572Z,1011.64
2018-05-11T02:18:26.535Z,1011.66
2018-05-11T02:19:36.729Z,1011.69
2018-05-11T02:20:46.710Z,1011.74
2018-05-11T02:21:56.427Z,1011.74
2018-05-11T02:23:06.144Z,1011.83
2018-05-11T02:24:16.186Z,1011.84
2018-05-11T02:25:26.188Z,1011.82
2018-05-11T02:26:36.158Z,1011.79
2018-05-11T02:27:46.132Z,1011.84
2018-05-11T02:28:56.105Z,1011.77
2018-05-11T02:30:05.814Z,1011.89
2018-05-11T02:31:15.777Z,1011.86
2018-05-11T02:32:25.499Z,1011.71
2018-05-11T02:33:35.471Z,1011.71
2018-05-11T02:34:45.454Z,1011.73
2018-05-11T02:35:55.433Z,1011.72
2018-05-11T02:37:05.171Z,1011.71
2018-05-11T02:38:15.149Z,1011.66
2018-05-11T02:39:24.594Z,1011.66
2018-05-11T02:40:34.565Z,1011.69
2018-05-11T02:41:44.540Z,1011.73
2018-05-11T02:42:54.261Z,1011.7
2018-05-11T02:44:04.231Z,1011.75
2018-05-11T02:45:13.963Z,1011.78
2018-05-11T02:46:23.967Z,1011.76
2018-05-11T02:47:33.939Z,1011.79
2018-05-11T02:48:43.936Z,1011.82
2018-05-11T02:49:53.664Z,1011.78
2018-05-11T02:51:03.388Z,1011.8
2018-05-11T02:52:13.376Z,1011.84
2018-05-11T02:53:23.089Z,1011.87
2018-05-11T02:54:32.804Z,1011.9
2018-05-11T02:55:42.776Z,1011.83
2018-05-11T02:56:52.758Z,1011.9
2018-05-11T02:58:02.757Z,1011.84
2018-05-11T02:59:12.726Z,1011.9
2018-05-11T03:00:22.714Z,1011.92
2018-05-11T03:01:32.679Z,1011.95
2018-05-11T03:02:42.662Z,1011.96
2018-05-11T03:03:52.641Z,1011.97
2018-05-11T03:05:02.617Z,1011.99
2018-05-11T03:06:12.599Z,1011.95
2018-05-11T03:07:22.574Z,1011.96
2018-05-11T03:08:32.287Z,1011.98
2018-05-11T03:09:42.256Z,1012
2018-05-11T03:10:52.248Z,1012.01
2018-05-11T03:12:02.217Z,1012.08
2018-05-11T03:13:12.185Z,1012.08
2018-05-11T03:14:21.890Z,1012.02
2018-05-11T03:15:31.876Z,1012.12
2018-05-11T03:16:41.851Z,1012.06
2018-05-11T03:17:51.318Z,1012.12
2018-05-11T03:19:01.039Z,1012.19
2018-05-11T03:20:10.754Z,1012.13
2018-05-11T03:21:20.732Z,1012.16
2018-05-11T03:22:30.703Z,1012.16
2018-05-11T03:23:40.430Z,1012.13
2018-05-11T03:24:50.138Z,1012.18
2018-05-11T03:25:59.848Z,1012.19
2018-05-11T03:27:09.550Z,1012.26
2018-05-11T03:28:19.257Z,1012.27
2018-05-11T03:29:29.234Z,1012.27
2018-05-11T03:30:38.935Z,1012.41
2018-05-11T03:31:48.139Z,1012.4
2018-05-11T03:32:58.105Z,1012.34
2018-05-11T03:34:08.080Z,1012.41
2018-05-11T03:35:18.055Z,1012.37
2018-05-11T03:36:28.037Z,1012.41
2018-05-11T03:37:37.745Z,1012.45
2018-05-11T03:38:47.712Z,1012.57
2018-05-11T03:39:57.697Z,1012.45
2018-05-11T03:41:07.402Z,1012.49
2018-05-11T03:42:17.410Z,1012.47
2018-05-11T03:43:27.114Z,1012.49
2018-05-11T03:44:36.858Z,1012.55
2018-05-11T03:45:46.822Z,1012.5
2018-05-11T03:46:56.538Z,1012.49
2018-05-11T03:48:06.539Z,1012.52
2018-05-11T03:49:16.508Z,1012.51
2018-05-11T03:50:26.536Z,1012.51
2018-05-11T03:51:36.499Z,1012.5
2018-05-11T03:52:46.275Z,1012.56
2018-05-11T03:53:56.233Z,1012.62
2018-05-11T03:55:06.198Z,1012.58
2018-05-11T03:56:15.913Z,1012.59
2018-05-11T03:57:25.640Z,1012.59
2018-05-11T03:58:35.599Z,1012.54
2018-05-11T03:59:45.568Z,1012.61
2018-05-11T04:00:55.634Z,1012.64
2018-05-11T04:02:05.344Z,1012.6
2018-05-11T04:03:15.310Z,1012.53
2018-05-11T04:04:25.368Z,1012.61
2018-05-11T04:05:35.352Z,1012.6
2018-05-11T04:06:45.076Z,1012.61
2018-05-11T04:07:55.046Z,1012.66
2018-05-11T04:09:05.010Z,1012.64
2018-05-11T04:10:14.465Z,1012.65
2018-05-11T04:11:24.174Z,1012.67
2018-05-11T04:12:34.146Z,1012.67
2018-05-11T04:13:44.108Z,1012.65
2018-05-11T04:14:54.068Z,1012.79
2018-05-11T04:16:03.788Z,1012.74
2018-05-11T04:17:13.779Z,1012.74
2018-05-11T04:18:23.748Z,1012.73
2018-05-11T04:19:33.459Z,1012.82
2018-05-11T04:20:43.188Z,1012.84
2018-05-11T04:21:53.477Z,1012.9
2018-05-11T04:23:03.444Z,1012.91
2018-05-11T04:24:13.148Z,1012.84
2018-05-11T04:25:22.868Z,1012.88
2018-05-11T04:26:32.594Z,1012.91
2018-05-11T04:27:42.576Z,1012.85
2018-05-11T04:28:52.546Z,1012.9
2018-05-11T04:30:02.254Z,1012.8
2018-05-11T04:31:12.086Z,1012.87
2018-05-11T04:32:21.798Z,1012.84
2018-05-11T04:33:31.519Z,1012.78
2018-05-11T04:34:41.488Z,1012.81
2018-05-11T04:35:51.452Z,1012.84
2018-05-11T04:37:01.158Z,1012.83
2018-05-11T04:38:11.189Z,1012.84
2018-05-11T04:39:21.156Z,1012.74
2018-05-11T04:40:31.195Z,1012.84
2018-05-11T04:41:41.157Z,1012.82
2018-05-11T04:42:51.133Z,1012.78
2018-05-11T04:44:01.105Z,1012.87
2018-05-11T04:45:11.152Z,1012.82
2018-05-11T04:46:21.060Z,1012.81
2018-05-11T04:47:30.779Z,1012.83
2018-05-11T04:48:40.745Z,1012.9
2018-05-11T04:49:50.450Z,1012.79
2018-05-11T04:51:00.423Z,1012.84
2018-05-11T04:52:10.388Z,1012.82
2018-05-11T04:53:20.369Z,1012.89
2018-05-11T04:54:29.811Z,1012.85
2018-05-11T04:55:39.791Z,1012.84
2018-05-11T04:56:49.776Z,1012.89
2018-05-11T04:57:59.755Z,1012.88
2018-05-11T04:59:09.485Z,1012.92
2018-05-11T05:00:19.464Z,1012.94
2018-05-11T05:01:29.446Z,1012.92
2018-05-11T05:02:39.414Z,1013.02
2018-05-11T05:03:49.122Z,1012.96
2018-05-11T05:04:58.840Z,1012.98
2018-05-11T05:06:08.820Z,1013
2018-05-11T05:07:18.541Z,1013.05
2018-05-11T05:08:28.251Z,1013.12
2018-05-11T05:09:38.221Z,1013.16
2018-05-11T05:10:47.933Z,1013.18
2018-05-11T05:11:57.895Z,1013.2
2018-05-11T05:13:07.630Z,1013.19
2018-05-11T05:14:17.355Z,1013.15
2018-05-11T05:15:27.326Z,1013.27
2018-05-11T05:16:37.290Z,1013.23
2018-05-11T05:17:47.270Z,1013.25
2018-05-11T05:18:56.985Z,1013.24
2018-05-11T05:20:06.835Z,1013.24
2018-05-11T05:21:16.543Z,1013.28
2018-05-11T05:22:25.993Z,1013.26
2018-05-11T05:23:35.717Z,1013.27
2018-05-11T05:24:45.424Z,1013.25
2018-05-11T05:25:55.397Z,1013.22
2018-05-11T05:27:05.110Z,1013.21
2018-05-11T05:28:14.814Z,1013.27
2018-05-11T05:29:24.534Z,1013.31
2018-05-11T05:30:34.595Z,1013.22
2018-05-11T05:31:44.045Z,1013.28
2018-05-11T05:32:54.076Z,1013.26
2018-05-11T05:34:04.249Z,1013.27
2018-05-11T05:35:13.961Z,1013.28
2018-05-11T05:36:23.669Z,1013.3
2018-05-11T05:37:33.646Z,1013.29
2018-05-11T05:38:43.618Z,1013.32
2018-05-11T05:39:53.606Z,1013.33
2018-05-11T05:41:03.307Z,1013.28
2018-05-11T05:42:13.295Z,1013.33
2018-05-11T05:43:23.271Z,1013.35
2018-05-11T05:44:32.991Z,1013.39
2018-05-11T05:45:42.979Z,1013.34
2018-05-11T05:46:53.211Z,1013.41
2018-05-11T05:48:02.935Z,1013.44
2018-05-11T05:49:12.914Z,1013.44
2018-05-11T05:50:22.887Z,1013.41
2018-05-11T05:51:32.863Z,1013.48
2018-05-11T05:52:42.573Z,1013.48
2018-05-11T05:53:52.576Z,1013.43
2018-05-11T05:55:02.566Z,1013.46
2018-05-11T05:56:12.652Z,1013.5
2018-05-11T05:57:22.631Z,1013.48
2018-05-11T05:58:32.640Z,1013.51
2018-05-11T05:59:42.054Z,1013.52
2018-05-11T06:00:52.113Z,1013.45
2018-05-11T06:02:02.086Z,1013.56
2018-05-11T06:03:11.797Z,1013.55
2018-05-11T06:04:21.506Z,1013.56
2018-05-11T06:05:31.269Z,1013.53
2018-05-11T06:06:41.231Z,1013.58
2018-05-11T06:07:51.206Z,1013.63
2018-05-11T06:09:01.193Z,1013.64
2018-05-11T06:10:11.277Z,1013.58
2018-05-11T06:11:21.239Z,1013.62
2018-05-11T06:12:31.008Z,1013.69
2018-05-11T06:13:40.990Z,1013.62
2018-05-11T06:14:50.976Z,1013.62
2018-05-11T06:16:00.954Z,1013.67
2018-05-11T06:17:10.923Z,1013.76
2018-05-11T06:18:20.899Z,1013.76
2018-05-11T06:19:30.879Z,1013.7
2018-05-11T06:20:40.855Z,1013.71
2018-05-11T06:21:50.825Z,1013.66
2018-05-11T06:23:01.057Z,1013.65
2018-05-11T06:24:11.041Z,1013.68
2018-05-11T06:25:20.761Z,1013.65
2018-05-11T06:26:30.484Z,1013.7
2018-05-11T06:27:40.468Z,1013.83
2018-05-11T06:28:50.196Z,1013.74
2018-05-11T06:29:59.923Z,1013.82
2018-05-11T06:31:09.933Z,1013.84
2018-05-11T06:32:19.396Z,1013.82
2018-05-11T06:33:29.149Z,1013.85
2018-05-11T06:34:38.859Z,1013.93
2018-05-11T06:35:48.579Z,1013.91
2018-05-11T06:36:58.306Z,1013.89
2018-05-11T06:38:08.271Z,1013.99
2018-05-11T06:39:18.259Z,1013.97
2018-05-11T06:40:27.717Z,1013.88
2018-05-11T06:41:37.874Z,1013.94
2018-05-11T06:42:47.862Z,1013.85
2018-05-11T06:43:57.844Z,1013.91
2018-05-11T06:45:07.570Z,1013.92
2018-05-11T06:46:17.271Z,1013.9
2018-05-11T06:47:27.236Z,1013.91
2018-05-11T06:48:37.508Z,1013.88
2018-05-11T06:49:47.495Z,1013.87
2018-05-11T06:50:57.477Z,1013.9
2018-05-11T06:52:07.458Z,1013.96
2018-05-11T06:53:17.201Z,1013.91
2018-05-11T06:54:27.166Z,1013.98
2018-05-11T06:55:37.132Z,1013.96
2018-05-11T06:56:47.155Z,1014.01
2018-05-11T06:57:56.880Z,1014
2018-05-11T06:59:06.893Z,1014.1
2018-05-11T07:00:16.862Z,1014.04
2018-05-11T07:01:26.854Z,1014.06
2018-05-11T07:02:36.628Z,1014.01
2018-05-11T07:03:46.602Z,1014.06
2018-05-11T07:04:56.587Z,1014.08
2018-05-11T07:06:06.598Z,1014.07
2018-05-11T07:07:16.663Z,1014.08
2018-05-11T07:08:26.797Z,1014.06
2018-05-11T07:09:36.757Z,1014.07
2018-05-11T07:10:46.729Z,1014.05
2018-05-11T07:11:56.439Z,1014.01
2018-05-11T07:13:06.422Z,1013.98
2018-05-11T07:14:15.882Z,1013.98
2018-05-11T07:15:25.590Z,1013.98
2018-05-11T07:16:35.568Z,1013.99
2018-05-11T07:17:45.554Z,1014
2018-05-11T07:18:55.530Z,1013.98
2018-05-11T07:20:05.238Z,1014.04
2018-05-11T07:21:14.965Z,1013.99
2018-05-11T07:22:25.206Z,1014.02
2018-05-11T07:23:35.244Z,1014
2018-05-11T07:24:44.952Z,1014.07
2018-05-11T07:25:54.686Z,1014.16
2018-05-11T07:27:04.654Z,1014.1
2018-05-11T07:28:14.622Z,1014.08
2018-05-11T07:29:24.596Z,1014.11
2018-05-11T07:30:34.588Z,1014.12
2018-05-11T07:31:44.565Z,1014.01
2018-05-11T07:32:54.531Z,1014.1
2018-05-11T07:34:04.251Z,1014.11
2018-05-11T07:35:13.963Z,1014.05
2018-05-11T07:36:23.682Z,1014.1
2018-05-11T07:37:33.409Z,1014.08
2018-05-11T07:38:42.870Z,1014.09
2018-05-11T07:39:52.588Z,1014.06
2018-05-11T07:41:02.593Z,1014.11
2018-05-11T07:42:12.299Z,1014.06
2018-05-11T07:43:22.121Z,1014.05
2018-05-11T07:44:32.444Z,1014.1
2018-05-11T07:45:42.149Z,1014.1
2018-05-11T07:46:51.859Z,1014.11
2018-05-11T07:48:01.625Z,1014.11
2018-05-11T07:49:11.610Z,1014.14
2018-05-11T07:50:21.595Z,1014.11
2018-05-11T07:51:31.687Z,1014.15
2018-05-11T07:52:41.901Z,1014.14
2018-05-11T07:53:51.901Z,1014.14
2018-05-11T07:55:01.644Z,1014.14
2018-05-11T07:56:11.382Z,1014.2
2018-05-11T07:57:21.366Z,1014.14
2018-05-11T07:58:31.382Z,1014.17
2018-05-11T07:59:41.086Z,1014.17
2018-05-11T08:00:51.064Z,1014.22
2018-05-11T08:02:01.080Z,1014.21
2018-05-11T08:03:10.804Z,1014.19
2018-05-11T08:04:20.798Z,1014.22
2018-05-11T08:05:30.798Z,1014.27
2018-05-11T08:06:40.259Z,1014.27
2018-05-11T08:07:50.235Z,1014.25
2018-05-11T08:08:59.947Z,1014.28
2018-05-11T08:10:09.929Z,1014.25
2018-05-11T08:11:19.642Z,1014.28
2018-05-11T08:12:29.366Z,1014.27
2018-05-11T08:13:39.082Z,1014.26
2018-05-11T08:14:49.050Z,1014.27
2018-05-11T08:15:58.763Z,1014.21
2018-05-11T08:17:08.474Z,1014.31
2018-05-11T08:18:18.453Z,1014.29
2018-05-11T08:19:27.651Z,1014.33
2018-05-11T08:20:37.634Z,1014.31
2018-05-11T08:21:47.362Z,1014.32
2018-05-11T08:22:57.335Z,1014.35
2018-05-11T08:24:07.321Z,1014.34
2018-05-11T08:25:17.067Z,1014.31
2018-05-11T08:26:27.052Z,1014.34
2018-05-11T08:27:37.224Z,1014.32
2018-05-11T08:28:47.219Z,1014.35
2018-05-11T08:29:56.946Z,1014.32
2018-05-11T08:31:06.158Z,1014.34
2018-05-11T08:32:16.145Z,1014.33
2018-05-11T08:33:26.138Z,1014.38
2018-05-11T08:34:35.854Z,1014.41
2018-05-11T08:35:45.625Z,1014.39
2018-05-11T08:36:55.631Z,1014.46
2018-05-11T08:38:05.339Z,1014.45
2018-05-11T08:39:15.307Z,1014.41
2018-05-11T08:40:24.764Z,1014.42
2018-05-11T08:41:34.481Z,1014.39
2018-05-11T08:42:44.453Z,1014.43
2018-05-11T08:43:54.460Z,1014.39
2018-05-11T08:45:04.426Z,1014.36
2018-05-11T08:46:14.399Z,1014.41
2018-05-11T08:47:24.554Z,1014.4
2018-05-11T08:48:34.536Z,1014.42
2018-05-11T08:49:44.498Z,1014.42
2018-05-11T08:50:54.476Z,1014.39
2018-05-11T08:52:03.947Z,1014.41
2018-05-11T08:53:13.921Z,1014.44
2018-05-11T08:54:23.893Z,1014.42
2018-05-11T08:55:33.859Z,1014.44
2018-05-11T08:56:43.846Z,1014.44
2018-05-11T08:57:53.826Z,1014.44
2018-05-11T08:59:03.805Z,1014.44
2018-05-11T09:00:13.797Z,1014.48
2018-05-11T09:01:23.532Z,1014.45
2018-05-11T09:02:33.248Z,1014.51
2018-05-11T09:03:43.297Z,1014.47
2018-05-11T09:04:53.030Z,1014.5
2018-05-11T09:06:03.009Z,1014.49
2018-05-11T09:07:12.976Z,1014.57
2018-05-11T09:08:22.964Z,1014.53
2018-05-11T09:09:33.356Z,1014.55
2018-05-11T09:10:43.324Z,1014.58
2018-05-11T09:11:53.303Z,1014.63
2018-05-11T09:13:03.291Z,1014.61
2018-05-11T09:14:13.262Z,1014.6
2018-05-11T09:15:23.262Z,1014.6
2018-05-11T09:16:32.535Z,1014.59
2018-05-11T09:17:42.529Z,1014.6
2018-05-11T09:18:52.499Z,1014.58
2018-05-11T09:20:02.216Z,1014.64
2018-05-11T09:21:12.212Z,1014.57
2018-05-11T09:22:22.379Z,1014.66
2018-05-11T09:23:32.357Z,1014.68
2018-05-11T09:24:42.078Z,1014.68
2018-05-11T09:25:52.067Z,1014.68
2018-05-11T09:27:01.829Z,1014.7
2018-05-11T09:28:11.894Z,1014.68
2018-05-11T09:29:21.874Z,1014.69
2018-05-11T09:30:31.870Z,1014.68
2018-05-11T09:31:41.876Z,1014.64
2018-05-11T09:32:51.928Z,1014.7
2018-05-11T09:34:01.919Z,1014.74
2018-05-11T09:35:11.894Z,1014.68
2018-05-11T09:36:21.870Z,1014.75
2018-05-11T09:37:31.862Z,1014.74
2018-05-11T09:38:41.843Z,1014.74
2018-05-11T09:39:51.854Z,1014.73
2018-05-11T09:41:02.044Z,1014.75
2018-05-11T09:42:12.008Z,1014.77
2018-05-11T09:43:22.016Z,1014.75
2018-05-11T09:44:31.730Z,1014.73
2018-05-11T09:45:41.705Z,1014.78
2018-05-11T09:46:51.436Z,1014.8
2018-05-11T09:48:00.887Z,1014.77
2018-05-11T09:49:10.596Z,1014.77
2018-05-11T09:50:20.584Z,1014.73
2018-05-11T09:51:30.302Z,1014.76
2018-05-11T09:52:40.278Z,1014.72
2018-05-11T09:53:50.248Z,1014.8
2018-05-11T09:55:00.325Z,1014.79
2018-05-11T09:56:10.423Z,1014.76
2018-05-11T09:57:20.139Z,1014.79
2018-05-11T09:58:30.158Z,1014.77
2018-05-11T09:59:39.884Z,1014.77
2018-05-11T10:00:49.402Z,1014.8
2018-05-11T10:01:59.509Z,1014.84
2018-05-11T10:03:09.490Z,1014.83
2018-05-11T10:04:19.489Z,1014.8
2018-05-11T10:05:29.485Z,1014.77
2018-05-11T10:06:39.274Z,1014.78
2018-05-11T10:07:49.094Z,1014.75
2018-05-11T10:08:59.193Z,1014.74
2018-05-11T10:10:09.201Z,1014.76
2018-05-11T10:11:19.188Z,1014.81
2018-05-11T10:12:29.181Z,1014.8
2018-05-11T10:13:39.243Z,1014.85
2018-05-11T10:14:49.484Z,1014.82
2018-05-11T10:15:59.471Z,1014.85
2018-05-11T10:17:09.199Z,1014.82
2018-05-11T10:18:19.177Z,1014.86
2018-05-11T10:19:29.187Z,1014.82
2018-05-11T10:20:39.186Z,1014.88
2018-05-11T10:21:49.061Z,1014.84
2018-05-11T10:22:58.781Z,1014.93
2018-05-11T10:24:08.771Z,1014.94
2018-05-11T10:25:18.499Z,1014.9
2018-05-11T10:26:28.223Z,1014.82
2018-05-11T10:27:38.220Z,1014.87
2018-05-11T10:28:47.999Z,1014.82
2018-05-11T10:29:58.000Z,1014.85
2018-05-11T10:31:07.728Z,1014.81
2018-05-11T10:32:17.727Z,1014.88
2018-05-11T10:33:27.696Z,1014.88
2018-05-11T10:34:37.697Z,1014.9
2018-05-11T10:35:47.686Z,1014.91
2018-05-11T10:36:57.674Z,1014.94
2018-05-11T10:38:07.130Z,1014.99
2018-05-11T10:39:16.595Z,1014.99
2018-05-11T10:40:26.306Z,1015.07
2018-05-11T10:41:36.276Z,1015.07
2018-05-11T10:42:45.991Z,1015.08
2018-05-11T10:43:55.970Z,1015.03
2018-05-11T10:45:05.685Z,1015.07
2018-05-11T10:46:15.394Z,1015.1
2018-05-11T10:47:25.385Z,1015.08
2018-05-11T10:48:35.149Z,1015.07
2018-05-11T10:49:45.388Z,1015.14
2018-05-11T10:50:55.368Z,1015.08
2018-05-11T10:52:05.096Z,1015.13
2018-05-11T10:53:15.079Z,1015.15
2018-05-11T10:54:24.538Z,1015.16
2018-05-11T10:55:34.271Z,1015.17
2018-05-11T10:56:44.265Z,1015.12
2018-05-11T10:57:53.988Z,1015.21
2018-05-11T10:59:03.966Z,1015.16
2018-05-11T11:00:13.969Z,1015.19
2018-05-11T11:01:23.946Z,1015.19
2018-05-11T11:02:33.681Z,1015.16
2018-05-11T11:03:43.662Z,1015.19
2018-05-11T11:04:53.660Z,1015.18
2018-05-11T11:06:03.376Z,1015.16
2018-05-11T11:07:13.360Z,1015.2
2018-05-11T11:08:22.821Z,1015.18
2018-05-11T11:09:32.797Z,1015.15
2018-05-11T11:10:42.778Z,1015.18
2018-05-11T11:11:52.767Z,1015.2
2018-05-11T11:13:02.752Z,1015.17
2018-05-11T11:14:12.728Z,1015.19
2018-05-11T11:15:22.187Z,1015.13
2018-05-11T11:16:31.918Z,1015.17
2018-05-11T11:17:41.887Z,1015.15
2018-05-11T11:18:51.625Z,1015.11
2018-05-11T11:20:01.749Z,1015.13
2018-05-11T11:21:11.974Z,1015.13
2018-05-11T11:22:21.702Z,1015.07
2018-05-11T11:23:31.676Z,1015.07
2018-05-11T11:24:41.671Z,1015.07
2018-05-11T11:25:51.647Z,1015.09
2018-05-11T11:27:02.160Z,1015.07
2018-05-11T11:28:12.194Z,1015.04
2018-05-11T11:29:21.910Z,1015.03
2018-05-11T11:30:31.892Z,1015.02
2018-05-11T11:31:41.950Z,1015.05
2018-05-11T11:32:51.665Z,1014.99
2018-05-11T11:34:01.668Z,1014.99
2018-05-11T11:35:11.139Z,1015.02
2018-05-11T11:36:21.136Z,1015
2018-05-11T11:37:31.122Z,1015
2018-05-11T11:38:41.229Z,1015.01
2018-05-11T11:39:51.190Z,1014.97
2018-05-11T11:41:01.262Z,1014.98
2018-05-11T11:42:11.579Z,1014.97
2018-05-11T11:43:21.781Z,1014.97
2018-05-11T11:44:31.780Z,1014.95
2018-05-11T11:45:41.755Z,1015
2018-05-11T11:46:51.745Z,1014.96
2018-05-11T11:48:01.741Z,1014.98
2018-05-11T11:49:11.715Z,1014.98
2018-05-11T11:50:21.442Z,1014.97
2018-05-11T11:51:31.154Z,1014.98
2018-05-11T11:52:41.132Z,1014.97
2018-05-11T11:53:50.859Z,1014.96
2018-05-11T11:55:00.590Z,1014.97
2018-05-11T11:56:10.669Z,1014.98
2018-05-11T11:57:20.402Z,1014.99
2018-05-11T11:58:30.389Z,1014.98
2018-05-11T11:59:40.381Z,1015.02
2018-05-11T12:00:50.364Z,1015.02
2018-05-11T12:02:00.334Z,1014.98
2018-05-11T12:03:10.155Z,1015
2018-05-11T12:04:19.892Z,1015.02
2018-05-11T12:05:29.901Z,1014.98
2018-05-11T12:06:39.888Z,1014.97
2018-05-11T12:07:49.620Z,1015.02
2018-05-11T12:08:59.669Z,1014.98
2018-05-11T12:10:09.891Z,1014.99
2018-05-11T12:11:19.877Z,1014.98
2018-05-11T12:12:29.862Z,1015
2018-05-11T12:13:39.575Z,1014.95
2018-05-11T12:14:49.292Z,1014.96
2018-05-11T12:15:59.271Z,1014.93
2018-05-11T12:17:09.257Z,1014.96
2018-05-11T12:18:19.224Z,1014.94
2018-05-11T12:19:28.951Z,1014.94
2018-05-11T12:20:38.923Z,1014.98
2018-05-11T12:21:48.642Z,1014.97
2018-05-11T12:22:58.629Z,1015
2018-05-11T12:24:08.365Z,1014.98
2018-05-11T12:25:18.096Z,1014.95
2018-05-11T12:26:28.221Z,1014.97
2018-05-11T12:27:38.221Z,1014.99
2018-05-11T12:28:47.948Z,1014.96
2018-05-11T12:29:57.952Z,1014.96
2018-05-11T12:31:07.936Z,1014.97
2018-05-11T12:32:17.939Z,1014.97
2018-05-11T12:33:27.648Z,1014.95
2018-05-11T12:34:37.639Z,1015
2018-05-11T12:35:47.173Z,1014.99
2018-05-11T12:36:57.163Z,1014.96
2018-05-11T12:38:07.209Z,1014.97
2018-05-11T12:39:17.209Z,1014.94
2018-05-11T12:40:26.922Z,1014.93
2018-05-11T12:41:36.910Z,1014.92
2018-05-11T12:42:46.892Z,1014.91
2018-05-11T12:43:56.891Z,1014.92
2018-05-11T12:45:06.615Z,1014.93
2018-05-11T12:46:16.332Z,1014.96
2018-05-11T12:47:26.327Z,1014.91
2018-05-11T12:48:36.323Z,1014.94
2018-05-11T12:49:46.059Z,1014.97
2018-05-11T12:50:55.790Z,1014.95
2018-05-11T12:52:05.514Z,1014.93
2018-05-11T12:53:15.509Z,1014.96
2018-05-11T12:54:25.483Z,1014.96
2018-05-11T12:55:35.482Z,1014.89
2018-05-11T12:56:45.458Z,1014.93
2018-05-11T12:57:55.174Z,1014.94
2018-05-11T12:59:05.231Z,1014.92
2018-05-11T13:00:14.965Z,1014.93
2018-05-11T13:01:24.941Z,1014.91
2018-05-11T13:02:34.921Z,1014.93
2018-05-11T13:03:44.385Z,1014.92
2018-05-11T13:04:54.358Z,1014.96
2018-05-11T13:06:04.344Z,1014.9
2018-05-11T13:07:13.884Z,1014.92
2018-05-11T13:08:24.208Z,1014.93
2018-05-11T13:09:34.209Z,1014.92
2018-05-11T13:10:44.217Z,1014.92
2018-05-11T13:11:54.197Z,1014.92
2018-05-11T13:13:04.168Z,1014.9
2018-05-11T13:14:14.196Z,1014.93
2018-05-11T13:15:24.260Z,1014.93
2018-05-11T13:16:34.242Z,1014.92
2018-05-11T13:17:43.962Z,1014.91
2018-05-11T13:18:53.432Z,1014.88
2018-05-11T13:20:03.422Z,1014.91
2018-05-11T13:21:13.420Z,1014.84
2018-05-11T13:22:23.151Z,1014.78
2018-05-11T13:23:32.880Z,1014.82
2018-05-11T13:24:42.605Z,1014.81
2018-05-11T13:25:52.592Z,1014.82
2018-05-11T13:27:02.331Z,1014.85
2018-05-11T13:28:11.796Z,1014.82
2018-05-11T13:29:21.519Z,1014.86
2018-05-11T13:30:31.518Z,1014.84
2018-05-11T13:31:42.348Z,1014.87
2018-05-11T13:32:52.358Z,1014.85
2018-05-11T13:34:02.074Z,1014.85
2018-05-11T13:35:12.365Z,1014.86
2018-05-11T13:36:22.139Z,1014.84
2018-05-11T13:37:32.595Z,1014.83
2018-05-11T13:38:42.316Z,1014.86
2018-05-11T13:39:52.313Z,1014.86
2018-05-11T13:41:02.281Z,1014.83
2018-05-11T13:42:12.088Z,1014.85
2018-05-11T13:43:22.218Z,1014.83
2018-05-11T13:44:31.937Z,1014.82
2018-05-11T13:45:41.920Z,1014.84
2018-05-11T13:46:51.901Z,1014.83
2018-05-11T13:48:01.634Z,1014.82
2018-05-11T13:49:11.913Z,1014.81
2018-05-11T13:50:21.904Z,1014.81
2018-05-11T13:51:31.901Z,1014.84
2018-05-11T13:52:41.879Z,1014.83
2018-05-11T13:53:51.681Z,1014.84
2018-05-11T13:55:01.663Z,1014.85
2018-05-11T13:56:11.651Z,1014.88
2018-05-11T13:57:21.876Z,1014.86
2018-05-11T13:58:31.889Z,1014.83
2018-05-11T13:59:41.868Z,1014.85
2018-05-11T14:00:51.849Z,1014.81
2018-05-11T14:02:01.585Z,1014.82
2018-05-11T14:03:11.594Z,1014.86
2018-05-11T14:04:21.593Z,1014.81
2018-05-11T14:05:31.679Z,1014.82
2018-05-11T14:06:41.669Z,1014.8
2018-05-11T14:07:51.674Z,1014.8
2018-05-11T14:09:01.663Z,1014.75
2018-05-11T14:10:11.678Z,1014.73